Bookmark and Share
Track history (hours):
 

Adriatic Sea

More information available from US FCC via Universal Licensing System and Coast Guard Vessel Documentation Center.

Last reported at 2014-Apr-17 23:26 UTC. Time now 2014-Apr-18 00:28 UTC.
Position N 36°31' W 123°07'.

Length 42 m; draft 4.9 m.

Type: Tug. MMSI: 366910890.

NotesDate/timePositionNaut miles runAvg speedWind from/ knotsBaromVisibWave heightAir tempDewpointWater temp
2014-Apr-17 23:26N 36°31' W 123°07'28 4.0
2014-Apr-17 16:33N 36°06' W 122°53'5 4.2
2014-Apr-17 15:18N 36°02' W 122°48'4 4.5
2014-Apr-17 14:30N 35°59' W 122°45'10 4.6
2014-Apr-17 12:24N 35°52' W 122°37'5 4.4
2014-Apr-17 11:09N 35°49' W 122°32'4 4.5
2014-Apr-17 10:11N 35°46' W 122°28'7 4.3
2014-Apr-17 08:32N 35°41' W 122°22'4 4.4
2014-Apr-17 07:33N 35°38' W 122°18'14 4.4
2014-Apr-17 04:27N 35°28' W 122°07'131 5.4
2014-Apr-16 04:24N 34°14' W 119°55'14 7.6
2014-Apr-16 02:33N 34°10' W 119°39'7 7.3
2014-Apr-16 01:33N 34°08' W 119°31'7 7.1
2014-Apr-16 00:33N 34°06' W 119°22'8 7.7
2014-Apr-15 23:33N 34°04' W 119°13'7 7.5
2014-Apr-15 22:33N 34°00' W 119°06'7 7.4
2014-Apr-15 21:33N 33°56' W 118°58'8 7.8
2014-Apr-15 20:33N 33°53' W 118°50'8 8.0
2014-Apr-15 19:33N 33°49' W 118°41'8 8.1
2014-Apr-15 18:33N 33°44' W 118°33'12 8.3
2014-Apr-15 17:10N 33°39' W 118°21'5 8.1
2014-Apr-15 16:33N 33°39' W 118°15'6 5.5
2014-Apr-15 15:30N 33°44' W 118°12'2 1.8
2014-Apr-15 14:33N 33°44' W 118°14'0 0.0
2014-Apr-15 12:34N 33°44' W 118°14'0 0.0
2014-Apr-15 10:34N 33°44' W 118°14'0 0.1
2014-Apr-15 09:34N 33°44' W 118°14'0 0.0
2014-Apr-15 08:34N 33°44' W 118°14'0 0.1
2014-Apr-15 07:34N 33°44' W 118°14'0 0.0
2014-Apr-15 06:34N 33°44' W 118°14'0 0.1
2014-Apr-15 05:34N 33°44' W 118°14'2 0.8
2014-Apr-15 02:34N 33°45' W 118°16'0 0.0
2014-Apr-15 01:34N 33°45' W 118°16'0 0.0
2014-Apr-15 00:34N 33°45' W 118°16'0 0.0
2014-Apr-14 23:34N 33°45' W 118°16'0 0.0
2014-Apr-14 22:34N 33°45' W 118°16'2 1.6
2014-Apr-14 21:34N 33°44' W 118°16'0 0.0
2014-Apr-14 20:34N 33°44' W 118°16'0 0.0
2014-Apr-14 19:34N 33°44' W 118°16'0 0.0
2014-Apr-14 18:34N 33°44' W 118°16'0 0.0
2014-Apr-14 17:33N 33°44' W 118°16'2 1.5
2014-Apr-14 16:31N 33°45' W 118°16'0 0.0
2014-Apr-14 15:33N 33°45' W 118°16'157 3.1
2014-Apr-12 13:32N 34°29' W 121°18'14 5.9
2014-Apr-12 11:13N 34°32' W 121°35'4 6.1
2014-Apr-12 10:33N 34°33' W 121°39'6 6.0
2014-Apr-12 09:33N 34°38' W 121°44'6 6.2
2014-Apr-12 08:33N 34°43' W 121°48'6 6.4
2014-Apr-12 07:33N 34°48' W 121°53'6 6.0
2014-Apr-12 06:33N 34°53' W 121°57'6 5.9
2014-Apr-12 05:33N 34°58' W 122°00'6 6.0
2014-Apr-12 04:33N 35°03' W 122°04'6 6.1
2014-Apr-12 03:33N 35°09' W 122°08'6 6.2
2014-Apr-12 02:33N 35°14' W 122°12'6 6.4
2014-Apr-12 01:33N 35°19' W 122°16'6 6.2
2014-Apr-12 00:33N 35°25' W 122°18'6 6.3
2014-Apr-11 23:33N 35°31' W 122°20'6 6.4
2014-Apr-11 22:33N 35°38' W 122°21'6 6.2
2014-Apr-11 21:33N 35°44' W 122°23'6 6.5
2014-Apr-11 20:33N 35°50' W 122°24'7 6.6
2014-Apr-11 19:33N 35°57' W 122°26'7 6.6
2014-Apr-11 18:33N 36°03' W 122°28'6 6.4
2014-Apr-11 17:33N 36°09' W 122°29'6 6.3
2014-Apr-11 16:33N 36°15' W 122°31'6 6.2
2014-Apr-11 15:33N 36°21' W 122°34'6 6.3
2014-Apr-11 14:33N 36°27' W 122°37'6 6.2
2014-Apr-11 13:33N 36°33' W 122°40'6 6.2
2014-Apr-11 12:33N 36°38' W 122°43'6 6.1
2014-Apr-11 11:33N 36°44' W 122°47'6 6.1
2014-Apr-11 10:33N 36°49' W 122°50'6 6.0
2014-Apr-11 09:33N 36°55' W 122°54'6 6.2
2014-Apr-11 08:33N 37°00' W 122°57'6 6.3
2014-Apr-11 07:33N 37°06' W 123°01'6 6.3
2014-Apr-11 06:33N 37°11' W 123°04'6 6.2
2014-Apr-11 05:33N 37°16' W 123°09'6 6.1
2014-Apr-11 04:33N 37°21' W 123°13'6 6.1
2014-Apr-11 03:33N 37°27' W 123°15'6 6.2
2014-Apr-11 02:33N 37°33' W 123°19'6 6.3
2014-Apr-11 01:33N 37°38' W 123°23'6 6.1
2014-Apr-11 00:33N 37°43' W 123°27'6 6.1
2014-Apr-10 23:33N 37°49' W 123°30'6 6.5
2014-Apr-10 22:33N 37°54' W 123°35'7 6.7
2014-Apr-10 21:33N 38°00' W 123°39'7 6.6
2014-Apr-10 20:33N 38°06' W 123°43'7 6.6
2014-Apr-10 19:33N 38°12' W 123°47'7 6.7
2014-Apr-10 18:33N 38°18' W 123°51'7 6.6
2014-Apr-10 17:33N 38°23' W 123°55'6 6.5
2014-Apr-10 16:33N 38°29' W 123°60'56 6.3
2014-Apr-10 07:33N 39°20' W 124°29'14 6.6
2014-Apr-10 05:26N 39°34' W 124°35'7 6.6
2014-Apr-10 04:26N 39°40' W 124°38'  

Dump ship's entire track history

sailing weather and tide predictions

Adriatic Sea — WDB5553 — position and weather